LFPB METAR and TAF | Updated Today

LFPB METAR

Paris-Le Bourget Airport

Observation time: 17 min. ago

LFPB 080700Z AUTO 21012KT 9999 FEW023 05/02 Q0997 TEMPO BKN012

Need help? Read our tutorial on how to read METARs or read the parsed version below.

Paris-Le Bourget Airport (LFPB) METAR

  • Weather conditions on Wed, 08 Dec 2021 07:00:00 +0000 (17 min. ago):
  • Present conditions: Dry
  • Clouds: A few at 701 meters
  • Visibility: Greater than 10 km
  • Wind: 210 degrees at 12 knots
  • Temperature: 5 celsius
  • Dew point: 2 celsius
  • Pressure: 997 millibars
  • Remarks: None


Useful to know...

LFPB TAF

Paris-Le Bourget Airport

TAF LFPB 080500Z 0806/0906 20012KT 9999 FEW020 TX07/0814Z TN01/0901Z PROB30 TEMPO 0808/0810 BKN012 PROB30 TEMPO 0812/0816 SCT020TCU
Observation time: 2:17 hr. ago
Need help? Read our tutorial on how to read TAFs or read the parsed version below.

Parsed version of TAF for Paris-Le Bourget Airport (LFPB)

  • From 08 December at 06:00 UTC, to day 09 of the month at 06:00 UTC
  • Clouds: A few at 610 meters
  • Visibility: Greater than 10 km
  • Wind: 200 degrees at 12
  • Expected to arise temporarily, from 08 December at 08:00 UTC, to day 08 of the month at 10:00 UTC
    Probability of 30%
  • Clouds: Broken sky at 366 meters
  • Expected to arise temporarily, from 08 December at 12:00 UTC, to day 08 of the month at 16:00 UTC
    Probability of 30%
  • Clouds: Scattered at 610 meters, towering cumulus